PWSweather.com
Personal Weather Stations
Station Observations
NBW76
Silver Creek, North Bend, WA 98065

Silver CreekNorth Bend, WA 98065

Lat: 47.4993612, Lon: -121.7783245

Elevation: 443

Station Type: Davisd VP2 + Solar + UV + Webcam

www.northbendweather.com

High Low Average
Temperature 52.9°F11.6°C 45.4°F7.4°C 49.0°F9.4°C
Dew Point 47.3°F8.5°C 44.1°F6.7°C 45.8°F7.7°C
Winds 11.5 mph 18.5 kmh Calm Calm 3.0 mph SE4.8 kmh SE
Wind Gusts 20.7 mph33.3 kmh -- 5.0 mph8.0 kmh
Humidity 96% 77% 89%
Pressure 30.36 in1028.1 mb 29.98 in1015.2 mb -
Precipitation 0.49 in12.4 mm - -
Hour Temp Dew Point Humidity Winds Wind Gusts Pressure Precip Precip Rate Daily Precip Total
12:00 AM 49.2°F9.6°C 47.0°F8.3°C 92% 1.2 mph N1.9 kmh N 10.4 mph16.7 kmh 29.95 in1014.2 mb - 0.03 in0.8 mm 2.16 in54.9 mm
12:10 AM 49.0°F9.4°C 46.8°F8.2°C 92% 4.6 mph SE7.4 kmh SE 4.6 mph7.4 kmh 29.95 in1014.2 mb - 0.02 in0.5 mm 2.17 in55.1 mm
12:20 AM 49.0°F9.4°C 46.8°F8.2°C 92% 3.5 mph N5.6 kmh N 3.5 mph5.6 kmh 29.95 in1014.2 mb - 0.03 in0.8 mm 2.20 in55.9 mm
12:30 AM 49.1°F9.5°C 46.9°F8.3°C 92% 5.8 mph NE9.3 kmh NE 10.4 mph16.7 kmh 29.96 in1014.6 mb - 0.04 in1.0 mm 2.23 in56.6 mm
12:40 AM 48.9°F9.4°C 46.7°F8.2°C 92% Calm Calm 2.3 mph3.7 kmh 29.98 in1015.2 mb - 0.03 in0.8 mm 2.25 in57.2 mm
12:50 AM 49.0°F9.4°C 46.7°F8.2°C 92% 5.8 mph N9.3 kmh N 5.8 mph9.3 kmh 29.97 in1014.9 mb - 0.01 in0.3 mm 2.26 in57.4 mm
01:00 AM 49.2°F9.6°C 47.0°F8.3°C 92% 3.5 mph SE5.6 kmh SE 3.5 mph5.6 kmh 29.98 in1015.2 mb - 0.01 in0.3 mm 0.17 in4.3 mm
01:10 AM 48.9°F9.4°C 46.7°F8.2°C 92% 4.6 mph N7.4 kmh N 11.5 mph18.5 kmh 29.99 in1015.6 mb - 0.01 in0.3 mm 0.01 in0.3 mm
01:20 AM 48.7°F9.3°C 46.8°F8.2°C 93% 1.2 mph ENE1.9 kmh ENE 3.5 mph5.6 kmh 30.00 in1015.9 mb - 0.01 in0.3 mm 0.02 in0.5 mm
01:30 AM 48.4°F9.1°C 46.5°F8.1°C 93% 4.6 mph NE7.4 kmh NE 5.8 mph9.3 kmh 30.00 in1015.9 mb - 0.02 in0.5 mm 0.04 in1.0 mm
01:40 AM 48.6°F9.2°C 46.7°F8.2°C 93% 6.9 mph N11.1 kmh N 11.5 mph18.5 kmh 30.00 in1015.9 mb - 0.01 in0.3 mm 0.05 in1.3 mm
01:50 AM 48.6°F9.2°C 46.7°F8.2°C 93% 6.9 mph NNW11.1 kmh NNW 11.5 mph18.5 kmh 30.01 in1016.3 mb - 0.02 in0.5 mm 0.07 in1.8 mm
02:00 AM 48.7°F9.3°C 46.8°F8.2°C 93% 6.9 mph N11.1 kmh N 9.2 mph14.8 kmh 30.02 in1016.6 mb - 0.01 in0.3 mm 0.08 in2.0 mm
02:10 AM 49.1°F9.5°C 47.2°F8.4°C 93% 11.5 mph N18.5 kmh N 17.3 mph27.8 kmh 30.02 in1016.6 mb - 0.02 in0.5 mm 0.10 in2.5 mm
02:20 AM 48.9°F9.4°C 47.0°F8.3°C 93% 2.3 mph NNW3.7 kmh NNW 5.8 mph9.3 kmh 30.03 in1016.9 mb - 0.02 in0.5 mm 0.12 in3.0 mm
02:30 AM 48.8°F9.3°C 46.9°F8.3°C 93% 1.2 mph NW1.9 kmh NW 3.5 mph5.6 kmh 30.04 in1017.3 mb - 0.02 in0.5 mm 0.13 in3.3 mm
02:40 AM 48.8°F9.3°C 47.2°F8.4°C 94% 2.3 mph N3.7 kmh N 3.5 mph5.6 kmh 30.04 in1017.3 mb - 0.02 in0.5 mm 0.15 in3.8 mm
02:50 AM 48.7°F9.3°C 47.1°F8.4°C 94% 8.1 mph N13.0 kmh N 11.5 mph18.5 kmh 30.04 in1017.3 mb - 0.01 in0.3 mm 0.16 in4.1 mm
03:00 AM 48.8°F9.3°C 47.2°F8.4°C 94% 3.5 mph NNW5.6 kmh NNW 3.5 mph5.6 kmh 30.05 in1017.6 mb - 0.01 in0.3 mm 0.17 in4.3 mm
03:10 AM 49.2°F9.6°C 47.3°F8.5°C 93% 4.6 mph N7.4 kmh N 9.2 mph14.8 kmh 30.06 in1017.9 mb - 0.00 in0.0 mm 0.17 in4.3 mm
03:20 AM 49.5°F9.7°C 47.3°F8.5°C 92% 11.5 mph NE18.5 kmh NE 20.7 mph33.3 kmh 30.05 in1017.6 mb - 0.00 in0.0 mm 0.17 in4.3 mm
03:30 AM 50.6°F10.3°C 47.1°F8.4°C 88% 4.6 mph NW7.4 kmh NW 6.9 mph11.1 kmh 30.07 in1018.3 mb - 0.00 in0.0 mm 0.17 in4.3 mm
03:40 AM 49.9°F9.9°C 46.8°F8.2°C 89% 3.5 mph NNE5.6 kmh NNE 9.2 mph14.8 kmh 30.06 in1017.9 mb - 0.01 in0.3 mm 0.18 in4.6 mm
03:50 AM 49.8°F9.9°C 47.0°F8.3°C 90% 3.5 mph NE5.6 kmh NE 9.2 mph14.8 kmh 30.07 in1018.3 mb - 0.01 in0.3 mm 0.19 in4.8 mm
04:00 AM 49.8°F9.9°C 47.0°F8.3°C 90% 2.3 mph NE3.7 kmh NE 4.6 mph7.4 kmh 30.07 in1018.3 mb - 0.00 in0.0 mm 0.19 in4.8 mm
04:10 AM 49.6°F9.8°C 46.8°F8.2°C 90% 2.3 mph E3.7 kmh E 4.6 mph7.4 kmh 30.07 in1018.3 mb - 0.00 in0.0 mm 0.19 in4.8 mm
04:20 AM 50.6°F10.3°C 47.2°F8.4°C 88% 4.6 mph NNE7.4 kmh NNE 11.5 mph18.5 kmh 30.07 in1018.3 mb - 0.00 in0.0 mm 0.19 in4.8 mm
04:30 AM 50.0°F10.0°C 46.6°F8.1°C 88% Calm Calm 3.5 mph5.6 kmh 30.08 in1018.6 mb - 0.00 in0.0 mm 0.19 in4.8 mm
04:40 AM 50.4°F10.2°C 46.7°F8.2°C 87% 1.2 mph NE1.9 kmh NE 3.5 mph5.6 kmh 30.07 in1018.3 mb - 0.00 in0.0 mm 0.19 in4.8 mm
04:50 AM 50.4°F10.2°C 46.9°F8.3°C 88% 3.5 mph NE5.6 kmh NE 3.5 mph5.6 kmh 30.09 in1019.0 mb - 0.00 in0.0 mm 0.19 in4.8 mm
05:00 AM 50.5°F10.3°C 46.8°F8.2°C 87% 1.2 mph NW1.9 kmh NW 3.5 mph5.6 kmh 30.11 in1019.6 mb - 0.00 in0.0 mm 0.19 in4.8 mm
05:10 AM 51.7°F10.9°C 46.4°F8.0°C 82% 6.9 mph N11.1 kmh N 18.4 mph29.6 kmh 30.10 in1019.3 mb - 0.00 in0.0 mm 0.19 in4.8 mm
05:20 AM 52.1°F11.2°C 46.1°F7.8°C 80% 5.8 mph N9.3 kmh N 11.5 mph18.5 kmh 30.12 in1020.0 mb - 0.00 in0.0 mm 0.19 in4.8 mm
05:30 AM 52.9°F11.6°C 45.9°F7.7°C 77% 6.9 mph NNE11.1 kmh NNE 5.8 mph9.3 kmh 30.12 in1020.0 mb - 0.00 in0.0 mm 0.19 in4.8 mm
05:40 AM 51.7°F10.9°C 46.1°F7.8°C 81% 4.6 mph N7.4 kmh N 6.9 mph11.1 kmh 30.13 in1020.3 mb - 0.00 in0.0 mm 0.19 in4.8 mm
05:50 AM 51.2°F10.7°C 45.9°F7.7°C 82% 10.4 mph NW16.7 kmh NW 12.7 mph20.4 kmh 30.12 in1020.0 mb - 0.00 in0.0 mm 0.19 in4.8 mm
06:00 AM 50.9°F10.5°C 45.9°F7.7°C 83% 5.8 mph N9.3 kmh N 9.2 mph14.8 kmh 30.13 in1020.3 mb - 0.00 in0.0 mm 0.19 in4.8 mm
06:10 AM 50.6°F10.3°C 45.9°F7.7°C 84% 5.8 mph NNW9.3 kmh NNW 10.4 mph16.7 kmh 30.13 in1020.3 mb - 0.01 in0.3 mm 0.20 in5.1 mm
06:20 AM 50.0°F10.0°C 46.0°F7.8°C 86% 2.3 mph N3.7 kmh N 3.5 mph5.6 kmh 30.14 in1020.7 mb - 0.00 in0.0 mm 0.20 in5.1 mm
06:30 AM 49.4°F9.7°C 46.0°F7.8°C 88% 3.5 mph NNE5.6 kmh NNE 3.5 mph5.6 kmh 30.15 in1021.0 mb - 0.00 in0.0 mm 0.20 in5.1 mm
06:40 AM 50.1°F10.1°C 46.1°F7.8°C 86% 3.5 mph SE5.6 kmh SE 6.9 mph11.1 kmh 30.16 in1021.3 mb - 0.00 in0.0 mm 0.20 in5.1 mm
06:50 AM 50.6°F10.3°C 45.9°F7.7°C 84% 3.5 mph NE5.6 kmh NE 5.8 mph9.3 kmh 30.15 in1021.0 mb - 0.00 in0.0 mm 0.20 in5.1 mm
07:00 AM 50.5°F10.3°C 45.8°F7.7°C 84% 8.1 mph W13.0 kmh W 9.2 mph14.8 kmh 30.15 in1021.0 mb - 0.01 in0.3 mm 0.21 in5.3 mm
07:10 AM 50.1°F10.1°C 45.8°F7.7°C 85% 4.6 mph N7.4 kmh N 9.2 mph14.8 kmh 30.16 in1021.3 mb - 0.00 in0.0 mm 0.21 in5.3 mm
07:20 AM 49.6°F9.8°C 45.9°F7.7°C 87% 1.2 mph S1.9 kmh S 3.5 mph5.6 kmh 30.16 in1021.3 mb - 0.00 in0.0 mm 0.21 in5.3 mm
07:30 AM 49.8°F9.9°C 46.1°F7.8°C 87% 2.3 mph SSW3.7 kmh SSW 3.5 mph5.6 kmh 30.17 in1021.7 mb - 0.00 in0.0 mm 0.21 in5.3 mm
07:40 AM 49.4°F9.7°C 46.0°F7.8°C 88% 1.2 mph NNE1.9 kmh NNE 5.8 mph9.3 kmh 30.17 in1021.7 mb - 0.00 in0.0 mm 0.21 in5.3 mm
07:50 AM 49.6°F9.8°C 46.2°F7.9°C 88% 2.3 mph ENE3.7 kmh ENE 4.6 mph7.4 kmh 30.17 in1021.7 mb - 0.00 in0.0 mm 0.21 in5.3 mm
08:00 AM 49.4°F9.7°C 46.0°F7.8°C 88% Calm Calm -- 30.17 in1021.7 mb - 0.01 in0.3 mm 0.22 in5.6 mm
08:10 AM 48.9°F9.4°C 45.8°F7.7°C 89% 1.2 mph S1.9 kmh S 2.3 mph3.7 kmh 30.17 in1021.7 mb - 0.01 in0.3 mm 0.23 in5.8 mm
08:20 AM 48.7°F9.3°C 45.9°F7.7°C 90% Calm Calm 1.2 mph1.9 kmh 30.18 in1022.0 mb - 0.01 in0.3 mm 0.24 in6.1 mm
08:30 AM 48.5°F9.2°C 46.0°F7.8°C 91% 1.2 mph E1.9 kmh E 6.9 mph11.1 kmh 30.18 in1022.0 mb - 0.01 in0.3 mm 0.25 in6.4 mm
08:40 AM 48.5°F9.2°C 45.9°F7.7°C 91% 1.2 mph E1.9 kmh E 5.8 mph9.3 kmh 30.19 in1022.4 mb - 0.01 in0.3 mm 0.26 in6.6 mm
08:50 AM 48.3°F9.1°C 46.1°F7.8°C 92% 4.6 mph E7.4 kmh E 10.4 mph16.7 kmh 30.18 in1022.0 mb - 0.01 in0.3 mm 0.27 in6.9 mm
09:00 AM 48.1°F8.9°C 45.9°F7.7°C 92% 2.3 mph ENE3.7 kmh ENE 3.5 mph5.6 kmh 30.19 in1022.4 mb - 0.00 in0.0 mm 0.27 in6.9 mm
09:10 AM 48.1°F8.9°C 45.9°F7.7°C 92% 2.3 mph ENE3.7 kmh ENE 3.5 mph5.6 kmh 30.19 in1022.4 mb - 0.00 in0.0 mm 0.27 in6.9 mm
09:20 AM 48.3°F9.1°C 46.0°F7.8°C 92% 2.3 mph ESE3.7 kmh ESE 4.6 mph7.4 kmh 30.18 in1022.0 mb - 0.01 in0.3 mm 0.28 in7.1 mm
09:30 AM 48.8°F9.3°C 46.0°F7.8°C 90% 1.2 mph SE1.9 kmh SE 2.3 mph3.7 kmh 30.19 in1022.4 mb - 0.00 in0.0 mm 0.28 in7.1 mm
09:40 AM 49.3°F9.6°C 45.9°F7.7°C 88% 1.2 mph ESE1.9 kmh ESE 2.3 mph3.7 kmh 30.19 in1022.4 mb - 0.00 in0.0 mm 0.28 in7.1 mm
09:50 AM 49.4°F9.7°C 46.0°F7.8°C 88% 4.6 mph E7.4 kmh E 10.4 mph16.7 kmh 30.19 in1022.4 mb - 0.00 in0.0 mm 0.28 in7.1 mm
10:00 AM 50.0°F10.0°C 45.4°F7.4°C 84% 1.2 mph SSE1.9 kmh SSE 2.3 mph3.7 kmh 30.20 in1022.7 mb - 0.00 in0.0 mm 0.28 in7.1 mm
10:10 AM 49.7°F9.8°C 45.7°F7.6°C 86% 1.2 mph S1.9 kmh S 3.5 mph5.6 kmh 30.20 in1022.7 mb - 0.00 in0.0 mm 0.28 in7.1 mm
10:20 AM 50.2°F10.1°C 45.6°F7.6°C 84% 1.2 mph E1.9 kmh E 4.6 mph7.4 kmh 30.21 in1023.0 mb - 0.00 in0.0 mm 0.28 in7.1 mm
10:30 AM 50.9°F10.5°C 45.3°F7.4°C 81% 1.2 mph SE1.9 kmh SE 2.3 mph3.7 kmh 30.22 in1023.4 mb - 0.00 in0.0 mm 0.28 in7.1 mm
10:40 AM 50.7°F10.4°C 45.4°F7.4°C 82% 1.2 mph E1.9 kmh E 3.5 mph5.6 kmh 30.23 in1023.7 mb - 0.00 in0.0 mm 0.28 in7.1 mm
10:50 AM 50.3°F10.2°C 45.6°F7.6°C 84% Calm Calm 3.5 mph5.6 kmh 30.23 in1023.7 mb - 0.00 in0.0 mm 0.28 in7.1 mm
11:00 AM 50.3°F10.2°C 45.4°F7.4°C 83% 3.5 mph ESE5.6 kmh ESE 3.5 mph5.6 kmh 30.23 in1023.7 mb - 0.00 in0.0 mm 0.28 in7.1 mm
11:10 AM 50.5°F10.3°C 45.5°F7.5°C 83% 1.2 mph ESE1.9 kmh ESE 4.6 mph7.4 kmh 30.24 in1024.0 mb - 0.00 in0.0 mm 0.28 in7.1 mm
11:20 AM 50.8°F10.4°C 45.5°F7.5°C 82% Calm Calm 3.5 mph5.6 kmh 30.24 in1024.0 mb - 0.00 in0.0 mm 0.28 in7.1 mm
11:30 AM 50.8°F10.4°C 45.2°F7.3°C 81% 1.2 mph NE1.9 kmh NE 4.6 mph7.4 kmh 30.25 in1024.4 mb - 0.00 in0.0 mm 0.28 in7.1 mm
11:40 AM 50.9°F10.5°C 45.3°F7.4°C 81% 1.2 mph SE1.9 kmh SE 3.5 mph5.6 kmh 30.25 in1024.4 mb - 0.00 in0.0 mm 0.28 in7.1 mm
11:50 AM 50.5°F10.3°C 45.8°F7.7°C 84% 1.2 mph E1.9 kmh E 1.2 mph1.9 kmh 30.25 in1024.4 mb - 0.00 in0.0 mm 0.28 in7.1 mm
12:00 PM 50.1°F10.1°C 46.1°F7.8°C 86% 1.2 mph S1.9 kmh S 3.5 mph5.6 kmh 30.26 in1024.7 mb - 0.00 in0.0 mm 0.28 in7.1 mm
12:10 PM 50.0°F10.0°C 46.0°F7.8°C 86% 1.2 mph ESE1.9 kmh ESE 1.2 mph1.9 kmh 30.26 in1024.7 mb - 0.00 in0.0 mm 0.28 in7.1 mm
12:20 PM 50.0°F10.0°C 46.0°F7.8°C 86% 2.3 mph E3.7 kmh E 2.3 mph3.7 kmh 30.27 in1025.1 mb - 0.00 in0.0 mm 0.28 in7.1 mm
12:30 PM 50.2°F10.1°C 46.2°F7.9°C 86% 1.2 mph NE1.9 kmh NE 2.3 mph3.7 kmh 30.26 in1024.7 mb - 0.00 in0.0 mm 0.28 in7.1 mm
12:40 PM 50.2°F10.1°C 45.9°F7.7°C 85% 3.5 mph NE5.6 kmh NE 6.9 mph11.1 kmh 30.26 in1024.7 mb - 0.00 in0.0 mm 0.28 in7.1 mm
12:50 PM 50.1°F10.1°C 46.1°F7.8°C 86% 3.5 mph E5.6 kmh E 3.5 mph5.6 kmh 30.27 in1025.1 mb - 0.00 in0.0 mm 0.28 in7.1 mm
01:00 PM 50.0°F10.0°C 46.6°F8.1°C 88% Calm Calm -- 30.27 in1025.1 mb - 0.00 in0.0 mm 0.28 in7.1 mm
01:10 PM 49.6°F9.8°C 46.2°F7.9°C 88% 2.3 mph ESE3.7 kmh ESE 3.5 mph5.6 kmh 30.27 in1025.1 mb - 0.01 in0.3 mm 0.29 in7.4 mm
01:20 PM 49.3°F9.6°C 46.2°F7.9°C 89% 2.3 mph S3.7 kmh S 3.5 mph5.6 kmh 30.27 in1025.1 mb - 0.00 in0.0 mm 0.29 in7.4 mm
01:30 PM 49.1°F9.5°C 46.6°F8.1°C 91% Calm Calm 2.3 mph3.7 kmh 30.28 in1025.4 mb - 0.00 in0.0 mm 0.29 in7.4 mm
01:40 PM 48.8°F9.3°C 46.3°F7.9°C 91% 2.3 mph NE3.7 kmh NE 4.6 mph7.4 kmh 30.27 in1025.1 mb - 0.01 in0.3 mm 0.30 in7.6 mm
01:50 PM 48.8°F9.3°C 46.6°F8.1°C 92% 1.2 mph NE1.9 kmh NE 3.5 mph5.6 kmh 30.27 in1025.1 mb - 0.00 in0.0 mm 0.30 in7.6 mm
02:00 PM 48.9°F9.4°C 46.7°F8.2°C 92% 1.2 mph NNW1.9 kmh NNW 4.6 mph7.4 kmh 30.28 in1025.4 mb - 0.00 in0.0 mm 0.30 in7.6 mm
02:10 PM 49.3°F9.6°C 46.5°F8.1°C 90% 4.6 mph NE7.4 kmh NE 8.1 mph13.0 kmh 30.28 in1025.4 mb - 0.00 in0.0 mm 0.30 in7.6 mm
02:20 PM 50.6°F10.3°C 45.9°F7.7°C 84% 2.3 mph NW3.7 kmh NW 2.3 mph3.7 kmh 30.28 in1025.4 mb - 0.00 in0.0 mm 0.30 in7.6 mm
02:30 PM 49.2°F9.6°C 46.1°F7.8°C 89% 4.6 mph N7.4 kmh N 5.8 mph9.3 kmh 30.28 in1025.4 mb - 0.00 in0.0 mm 0.30 in7.6 mm
02:40 PM 49.4°F9.7°C 46.3°F7.9°C 89% 3.5 mph NNE5.6 kmh NNE 3.5 mph5.6 kmh 30.28 in1025.4 mb - 0.01 in0.3 mm 0.31 in7.9 mm
02:50 PM 49.0°F9.4°C 46.2°F7.9°C 90% 5.8 mph N9.3 kmh N 6.9 mph11.1 kmh 30.28 in1025.4 mb - 0.00 in0.0 mm 0.31 in7.9 mm
03:00 PM 49.2°F9.6°C 46.1°F7.8°C 89% 2.3 mph E3.7 kmh E 4.6 mph7.4 kmh 30.28 in1025.4 mb - 0.00 in0.0 mm 0.31 in7.9 mm
03:10 PM 49.1°F9.5°C 46.3°F7.9°C 90% 1.2 mph N1.9 kmh N 3.5 mph5.6 kmh 30.29 in1025.7 mb - 0.00 in0.0 mm 0.31 in7.9 mm
03:20 PM 49.9°F9.9°C 46.2°F7.9°C 87% 3.5 mph ENE5.6 kmh ENE 10.4 mph16.7 kmh 30.28 in1025.4 mb - 0.00 in0.0 mm 0.31 in7.9 mm
03:30 PM 50.1°F10.1°C 46.1°F7.8°C 86% 3.5 mph NNW5.6 kmh NNW 3.5 mph5.6 kmh 30.29 in1025.7 mb - 0.00 in0.0 mm 0.31 in7.9 mm
03:40 PM 50.5°F10.3°C 45.5°F7.5°C 83% 3.5 mph NE5.6 kmh NE 6.9 mph11.1 kmh 30.29 in1025.7 mb - 0.00 in0.0 mm 0.31 in7.9 mm
03:50 PM 50.9°F10.5°C 45.3°F7.4°C 81% 4.6 mph NE7.4 kmh NE 11.5 mph18.5 kmh 30.29 in1025.7 mb - 0.00 in0.0 mm 0.31 in7.9 mm
04:00 PM 50.8°F10.4°C 45.2°F7.3°C 81% 3.5 mph E5.6 kmh E 4.6 mph7.4 kmh 30.29 in1025.7 mb - 0.00 in0.0 mm 0.31 in7.9 mm
04:10 PM 50.9°F10.5°C 45.3°F7.4°C 81% 5.8 mph SE9.3 kmh SE 10.4 mph16.7 kmh 30.29 in1025.7 mb - 0.00 in0.0 mm 0.31 in7.9 mm
04:20 PM 50.8°F10.4°C 45.2°F7.3°C 81% 3.5 mph ENE5.6 kmh ENE 5.8 mph9.3 kmh 30.30 in1026.1 mb - 0.00 in0.0 mm 0.31 in7.9 mm
04:30 PM 50.4°F10.2°C 45.1°F7.3°C 82% Calm Calm 2.3 mph3.7 kmh 30.31 in1026.4 mb - 0.00 in0.0 mm 0.31 in7.9 mm
04:40 PM 50.0°F10.0°C 45.4°F7.4°C 84% 3.5 mph S5.6 kmh S 5.8 mph9.3 kmh 30.32 in1026.8 mb - 0.00 in0.0 mm 0.31 in7.9 mm
04:50 PM 50.4°F10.2°C 45.1°F7.3°C 82% 3.5 mph SE5.6 kmh SE 5.8 mph9.3 kmh 30.32 in1026.8 mb - 0.01 in0.3 mm 0.32 in8.1 mm
05:00 PM 50.4°F10.2°C 45.5°F7.5°C 83% 5.8 mph E9.3 kmh E 5.8 mph9.3 kmh 30.32 in1026.8 mb - 0.00 in0.0 mm 0.32 in8.1 mm
05:10 PM 50.6°F10.3°C 45.4°F7.4°C 82% 4.6 mph SE7.4 kmh SE 8.1 mph13.0 kmh 30.32 in1026.8 mb - 0.00 in0.0 mm 0.32 in8.1 mm
05:20 PM 50.4°F10.2°C 45.4°F7.4°C 83% 3.5 mph ESE5.6 kmh ESE 9.2 mph14.8 kmh 30.32 in1026.8 mb - 0.00 in0.0 mm 0.32 in8.1 mm
05:30 PM 50.9°F10.5°C 45.6°F7.6°C 82% 3.5 mph SE5.6 kmh SE 5.8 mph9.3 kmh 30.33 in1027.1 mb - 0.01 in0.3 mm 0.33 in8.4 mm
05:40 PM 50.3°F10.2°C 45.6°F7.6°C 84% 1.2 mph SSE1.9 kmh SSE 5.8 mph9.3 kmh 30.33 in1027.1 mb - 0.00 in0.0 mm 0.33 in8.4 mm
05:50 PM 49.9°F9.9°C 45.6°F7.6°C 85% 2.3 mph ESE3.7 kmh ESE 4.6 mph7.4 kmh 30.33 in1027.1 mb - 0.00 in0.0 mm 0.33 in8.4 mm
06:00 PM 49.8°F9.9°C 45.5°F7.5°C 85% 1.2 mph WNW1.9 kmh WNW 2.3 mph3.7 kmh 30.33 in1027.1 mb - 0.00 in0.0 mm 0.33 in8.4 mm
06:10 PM 49.2°F9.6°C 45.5°F7.5°C 87% Calm Calm 2.3 mph3.7 kmh 30.33 in1027.1 mb - 0.01 in0.3 mm 0.34 in8.6 mm
06:20 PM 48.5°F9.2°C 45.4°F7.4°C 89% 1.2 mph SE1.9 kmh SE 2.3 mph3.7 kmh 30.33 in1027.1 mb - 0.00 in0.0 mm 0.34 in8.6 mm
06:30 PM 48.1°F8.9°C 45.6°F7.6°C 91% 1.2 mph ESE1.9 kmh ESE 2.3 mph3.7 kmh 30.33 in1027.1 mb - 0.00 in0.0 mm 0.34 in8.6 mm
06:40 PM 47.8°F8.8°C 45.6°F7.6°C 92% Calm Calm -- 30.33 in1027.1 mb - 0.00 in0.0 mm 0.34 in8.6 mm
06:50 PM 47.7°F8.7°C 45.5°F7.5°C 92% 1.2 mph SE1.9 kmh SE 3.5 mph5.6 kmh 30.33 in1027.1 mb - 0.01 in0.3 mm 0.35 in8.9 mm
07:00 PM 48.0°F8.9°C 46.1°F7.8°C 93% 1.2 mph N1.9 kmh N 2.3 mph3.7 kmh 30.33 in1027.1 mb - 0.00 in0.0 mm 0.35 in8.9 mm
07:10 PM 48.1°F8.9°C 45.9°F7.7°C 92% 2.3 mph NW3.7 kmh NW 3.5 mph5.6 kmh 30.33 in1027.1 mb - 0.00 in0.0 mm 0.35 in8.9 mm
07:20 PM 48.1°F8.9°C 45.9°F7.7°C 92% 4.6 mph NW7.4 kmh NW 5.8 mph9.3 kmh 30.33 in1027.1 mb - 0.01 in0.3 mm 0.36 in9.1 mm
07:30 PM 48.2°F9.0°C 46.0°F7.8°C 92% Calm Calm -- 30.34 in1027.4 mb - 0.01 in0.3 mm 0.37 in9.4 mm
07:40 PM 47.8°F8.8°C 45.6°F7.6°C 92% 3.5 mph W5.6 kmh W 4.6 mph7.4 kmh 30.34 in1027.4 mb - 0.00 in0.0 mm 0.37 in9.4 mm
07:50 PM 47.4°F8.6°C 45.5°F7.5°C 93% 1.2 mph N1.9 kmh N 1.2 mph1.9 kmh 30.35 in1027.8 mb - 0.01 in0.3 mm 0.38 in9.7 mm
08:00 PM 47.8°F8.8°C 45.9°F7.7°C 93% Calm Calm 1.2 mph1.9 kmh 30.35 in1027.8 mb - 0.02 in0.5 mm 0.40 in10.2 mm
08:10 PM 47.4°F8.6°C 45.5°F7.5°C 93% 1.2 mph SSE1.9 kmh SSE 3.5 mph5.6 kmh 30.35 in1027.8 mb - 0.01 in0.3 mm 0.41 in10.4 mm
08:20 PM 47.2°F8.4°C 45.3°F7.4°C 93% 4.6 mph NNW7.4 kmh NNW 3.5 mph5.6 kmh 30.35 in1027.8 mb - 0.01 in0.3 mm 0.41 in10.4 mm
08:30 PM 47.1°F8.4°C 45.5°F7.5°C 94% 1.2 mph N1.9 kmh N 3.5 mph5.6 kmh 30.36 in1028.1 mb - 0.01 in0.3 mm 0.42 in10.7 mm
08:40 PM 47.0°F8.3°C 45.4°F7.4°C 94% 2.3 mph NNE3.7 kmh NNE 3.5 mph5.6 kmh 30.36 in1028.1 mb - 0.01 in0.3 mm 0.43 in10.9 mm
08:50 PM 46.9°F8.3°C 45.3°F7.4°C 94% Calm Calm 1.2 mph1.9 kmh 30.36 in1028.1 mb - 0.00 in0.0 mm 0.43 in10.9 mm
09:00 PM 46.7°F8.2°C 45.1°F7.3°C 94% Calm Calm -- 30.35 in1027.8 mb - 0.02 in0.5 mm 0.45 in11.4 mm
09:10 PM 46.6°F8.1°C 45.0°F7.2°C 94% Calm Calm -- 30.36 in1028.1 mb - 0.01 in0.3 mm 0.45 in11.4 mm
09:20 PM 46.5°F8.1°C 44.9°F7.2°C 94% 2.3 mph NE3.7 kmh NE 3.5 mph5.6 kmh 30.35 in1027.8 mb - 0.02 in0.5 mm 0.47 in11.9 mm
09:30 PM 46.4°F8.0°C 45.0°F7.2°C 95% 3.5 mph SW5.6 kmh SW 3.5 mph5.6 kmh 30.35 in1027.8 mb - 0.00 in0.0 mm 0.47 in11.9 mm
09:40 PM 46.4°F8.0°C 45.0°F7.2°C 95% Calm Calm -- 30.35 in1027.8 mb - 0.01 in0.3 mm 0.48 in12.2 mm
09:50 PM 46.3°F7.9°C 45.0°F7.2°C 95% 1.2 mph SW1.9 kmh SW 1.2 mph1.9 kmh 30.34 in1027.4 mb - 0.00 in0.0 mm 0.48 in12.2 mm
10:00 PM 46.3°F7.9°C 44.9°F7.2°C 95% Calm Calm -- 30.34 in1027.4 mb - 0.00 in0.0 mm 0.48 in12.2 mm
10:10 PM 46.3°F7.9°C 44.9°F7.2°C 95% Calm Calm -- 30.35 in1027.8 mb - 0.00 in0.0 mm 0.48 in12.2 mm
10:20 PM 46.3°F7.9°C 44.9°F7.2°C 95% Calm Calm -- 30.35 in1027.8 mb - 0.00 in0.0 mm 0.48 in12.2 mm
10:30 PM 46.2°F7.9°C 44.8°F7.1°C 95% Calm Calm -- 30.35 in1027.8 mb - 0.00 in0.0 mm 0.48 in12.2 mm
10:40 PM 46.1°F7.8°C 44.7°F7.1°C 95% Calm Calm -- 30.34 in1027.4 mb - 0.00 in0.0 mm 0.48 in12.2 mm
10:50 PM 46.0°F7.8°C 44.6°F7.0°C 95% Calm Calm -- 30.34 in1027.4 mb - 0.01 in0.3 mm 0.49 in12.4 mm
11:00 PM 46.0°F7.8°C 44.6°F7.0°C 95% Calm Calm -- 30.34 in1027.4 mb - 0.00 in0.0 mm 0.49 in12.4 mm
11:10 PM 46.0°F7.8°C 44.6°F7.0°C 95% Calm Calm -- 30.34 in1027.4 mb - 0.00 in0.0 mm 0.49 in12.4 mm
11:20 PM 46.0°F7.8°C 44.9°F7.2°C 96% Calm Calm -- 30.33 in1027.1 mb - 0.00 in0.0 mm 0.49 in12.4 mm
11:30 PM 46.0°F7.8°C 44.9°F7.2°C 96% Calm Calm -- 30.33 in1027.1 mb - 0.00 in0.0 mm 0.49 in12.4 mm
11:40 PM 46.0°F7.8°C 44.9°F7.2°C 96% Calm Calm -- 30.33 in1027.1 mb - 0.00 in0.0 mm 0.49 in12.4 mm
11:50 PM 45.9°F7.7°C 44.9°F7.2°C 96% Calm Calm -- 30.34 in1027.4 mb - 0.00 in0.0 mm 0.49 in12.4 mm